Time;durP1;ratioP1;P1;durP2;ratioP2;P2;SDS_P1;SDS_P2;PMS_P1;PMS_P2;Temp;Humidity;BMP_temperature;BMP_pressure;BME280_temperature;BME280_humidity;BME280_pressure;Samples;Min_cycle;Max_cycle;Signal;HPM_P1;HPM_P2
2021/05/09 00:03:36;;;;;;;2.30;2.20;;;12.40;92.90;;;;;;10479967;28;20680;-83
2021/05/09 00:08:38;;;;;;;2.70;2.50;;;12.30;92.80;;;;;;10503659;28;20247;-83
2021/05/09 00:13:41;;;;;;;2.20;2.10;;;12.30;93.10;;;;;;10475112;28;20279;-83
2021/05/09 00:18:42;;;;;;;2.20;2.10;;;12.20;93.10;;;;;;10485688;28;20229;-83
2021/05/09 00:23:45;;;;;;;2.80;2.50;;;12.20;93.50;;;;;;10472470;28;20204;-81
2021/05/09 00:28:51;;;;;;;2.90;2.60;;;12.20;93.60;;;;;;10497189;28;20723;-81
2021/05/09 00:33:55;;;;;;;2.50;2.30;;;12.20;93.60;;;;;;10483984;28;20224;-82
2021/05/09 00:39:03;;;;;;;2.47;2.27;;;12.10;93.60;;;;;;10499316;28;20231;-83
2021/05/09 00:44:05;;;;;;;1.93;1.83;;;12.10;93.90;;;;;;10506112;28;20208;-83
2021/05/09 00:49:07;;;;;;;2.50;2.27;;;12.00;94.00;;;;;;10480119;28;20268;-84
2021/05/09 00:54:12;;;;;;;2.40;2.27;;;12.10;94.50;;;;;;10511854;28;20231;-84
2021/05/09 00:59:14;;;;;;;2.30;2.20;;;12.00;94.70;;;;;;10501796;28;20208;-81
2021/05/09 01:04:18;;;;;;;2.40;1.97;;;12.00;94.90;;;;;;10487755;28;20200;-82
2021/05/09 01:09:22;;;;;;;2.13;2.03;;;12.10;95.20;;;;;;10491338;28;20199;-81
2021/05/09 01:14:26;;;;;;;2.30;2.10;;;12.10;95.30;;;;;;10464369;28;20782;-82
2021/05/09 01:19:28;;;;;;;2.70;2.43;;;12.10;95.60;;;;;;10484992;28;20212;-83
2021/05/09 01:24:31;;;;;;;2.50;2.30;;;12.00;95.70;;;;;;10504932;28;20657;-84
2021/05/09 01:29:35;;;;;;;2.10;2.00;;;12.00;95.90;;;;;;10475041;28;20719;-84
2021/05/09 01:34:38;;;;;;;2.40;2.07;;;12.00;96.40;;;;;;10466229;28;20229;-84
2021/05/09 01:39:41;;;;;;;2.27;1.90;;;12.00;96.30;;;;;;10479787;28;20226;-84
2021/05/09 01:44:48;;;;;;;1.80;1.70;;;12.00;96.40;;;;;;10487762;28;20719;-82
2021/05/09 01:49:50;;;;;;;2.40;2.20;;;12.00;96.30;;;;;;10503869;28;20197;-83
2021/05/09 01:54:53;;;;;;;2.23;2.13;;;12.00;96.40;;;;;;10482073;28;20232;-82
2021/05/09 01:59:58;;;;;;;2.40;2.13;;;12.00;96.40;;;;;;10497313;28;20205;-82
2021/05/09 02:05:03;;;;;;;2.30;2.20;;;11.90;96.60;;;;;;10478463;28;20271;-83
2021/05/09 02:10:07;;;;;;;2.23;2.10;;;11.90;96.70;;;;;;10446736;28;20202;-84
2021/05/09 02:15:10;;;;;;;5.70;2.80;;;11.90;96.70;;;;;;10475286;28;20228;-84
2021/05/09 02:20:13;;;;;;;2.57;2.27;;;11.90;96.80;;;;;;10479195;28;20201;-82
2021/05/09 02:25:16;;;;;;;1.87;1.77;;;11.90;96.60;;;;;;10512742;28;20221;-83
2021/05/09 02:30:19;;;;;;;1.87;1.77;;;11.90;96.60;;;;;;10499748;28;20613;-82
2021/05/09 02:35:21;;;;;;;2.40;2.27;;;11.90;96.70;;;;;;10497051;28;20224;-85
2021/05/09 02:40:25;;;;;;;2.53;2.33;;;11.90;96.80;;;;;;10471363;28;20212;-83
2021/05/09 02:45:26;;;;;;;3.50;2.10;;;11.90;97.00;;;;;;10487245;28;20251;-84
2021/05/09 02:50:28;;;;;;;2.30;2.20;;;11.90;96.90;;;;;;10459043;28;20208;-83
2021/05/09 02:55:31;;;;;;;2.10;2.00;;;11.80;96.90;;;;;;10481409;28;20228;-83
2021/05/09 03:00:35;;;;;;;3.57;2.80;;;11.80;97.10;;;;;;10489693;28;20581;-83
2021/05/09 03:05:38;;;;;;;2.40;2.20;;;11.80;97.10;;;;;;10490203;28;20239;-84
2021/05/09 03:10:40;;;;;;;3.07;2.87;;;11.80;97.40;;;;;;10491772;28;20258;-85
2021/05/09 03:15:43;;;;;;;3.20;2.23;;;11.80;97.50;;;;;;10506451;28;20720;-83
2021/05/09 03:20:44;;;;;;;2.77;2.67;;;11.70;97.60;;;;;;10487024;28;20209;-84
2021/05/09 03:25:47;;;;;;;3.00;2.80;;;11.80;97.90;;;;;;10482951;28;20224;-83
2021/05/09 03:30:49;;;;;;;2.50;2.40;;;11.70;97.80;;;;;;10506648;28;20634;-83
2021/05/09 03:35:50;;;;;;;2.70;2.60;;;11.80;98.10;;;;;;10486995;28;20235;-81
2021/05/09 03:40:53;;;;;;;2.67;2.47;;;11.70;98.10;;;;;;10494146;28;20196;-81
2021/05/09 03:45:55;;;;;;;2.67;2.47;;;11.70;98.20;;;;;;10499452;28;20299;-82
2021/05/09 03:50:56;;;;;;;2.57;2.37;;;11.70;98.30;;;;;;10479962;28;20204;-82
2021/05/09 03:55:59;;;;;;;2.87;2.67;;;11.70;98.40;;;;;;10495046;28;20271;-82
2021/05/09 04:01:01;;;;;;;2.50;2.30;;;11.70;98.50;;;;;;10465506;28;20204;-81
2021/05/09 04:06:02;;;;;;;2.60;2.40;;;11.70;98.70;;;;;;10457032;28;20650;-81
2021/05/09 04:11:06;;;;;;;3.20;2.70;;;11.70;98.80;;;;;;10461687;28;20210;-81
2021/05/09 04:16:08;;;;;;;6.83;2.30;;;11.70;99.00;;;;;;10495601;28;20254;-81
2021/05/09 04:21:09;;;;;;;3.13;2.83;;;11.70;98.80;;;;;;10482782;28;20295;-81
2021/05/09 04:26:12;;;;;;;2.93;2.37;;;11.80;99.00;;;;;;10478818;28;20220;-81
2021/05/09 04:31:13;;;;;;;3.67;3.37;;;11.80;99.00;;;;;;10489851;28;20220;-81
2021/05/09 04:36:15;;;;;;;3.80;3.50;;;11.80;99.20;;;;;;10491054;28;20235;-81
2021/05/09 04:41:18;;;;;;;4.63;3.43;;;11.90;99.20;;;;;;10467563;28;20201;-81
2021/05/09 04:46:20;;;;;;;3.23;2.93;;;11.90;99.50;;;;;;10487047;28;20229;-81
2021/05/09 04:51:21;;;;;;;3.13;2.93;;;12.00;99.40;;;;;;10483780;28;20244;-81
2021/05/09 04:56:24;;;;;;;3.10;2.90;;;12.10;99.40;;;;;;10488452;28;20231;-81
2021/05/09 05:01:25;;;;;;;2.60;2.50;;;12.20;99.20;;;;;;10491544;28;20201;-81
2021/05/09 05:06:27;;;;;;;3.23;3.03;;;12.30;99.20;;;;;;10495313;28;20213;-84
2021/05/09 05:11:29;;;;;;;2.80;2.60;;;12.30;99.30;;;;;;10521057;28;20204;-83
2021/05/09 05:16:31;;;;;;;3.10;2.90;;;12.30;99.30;;;;;;10514407;28;20246;-84
2021/05/09 05:21:33;;;;;;;5.27;2.70;;;12.30;99.40;;;;;;10525090;28;20235;-83
2021/05/09 05:26:36;;;;;;;2.60;2.40;;;12.30;99.50;;;;;;10498070;28;20232;-83
2021/05/09 05:31:37;;;;;;;3.30;3.00;;;12.40;99.50;;;;;;10511007;28;20215;-85
2021/05/09 05:36:39;;;;;;;3.13;2.93;;;12.40;99.60;;;;;;10478245;28;20220;-83
2021/05/09 05:41:42;;;;;;;3.03;2.70;;;12.40;99.70;;;;;;10512683;28;20193;-84
2021/05/09 05:46:43;;;;;;;2.50;2.30;;;12.40;99.70;;;;;;10510703;28;20232;-82
2021/05/09 05:51:45;;;;;;;2.47;2.27;;;12.40;99.70;;;;;;10497831;28;20232;-83
2021/05/09 05:56:47;;;;;;;2.47;2.33;;;12.50;99.90;;;;;;10499030;28;20231;-84
2021/05/09 06:01:49;;;;;;;3.23;2.80;;;12.50;99.80;;;;;;10509310;28;20201;-85
2021/05/09 06:06:51;;;;;;;2.90;2.70;;;12.60;99.90;;;;;;10491491;28;20220;-83
2021/05/09 06:11:53;;;;;;;3.33;3.10;;;12.60;99.90;;;;;;10495546;28;20212;-84
2021/05/09 06:16:55;;;;;;;4.27;3.33;;;12.70;99.90;;;;;;10510375;28;20227;-84
2021/05/09 06:21:57;;;;;;;3.30;3.00;;;12.80;99.90;;;;;;10491747;28;20204;-84
2021/05/09 06:26:59;;;;;;;4.27;3.40;;;12.90;99.90;;;;;;10486732;28;20247;-83
2021/05/09 06:32:01;;;;;;;3.33;3.10;;;13.00;99.90;;;;;;10483677;28;20216;-83
2021/05/09 06:37:02;;;;;;;3.13;2.90;;;13.10;99.90;;;;;;10499158;28;20234;-84
2021/05/09 06:42:06;;;;;;;3.90;3.23;;;13.20;99.90;;;;;;10515313;28;20197;-83
2021/05/09 06:47:07;;;;;;;3.23;3.03;;;13.30;99.90;;;;;;10497209;28;20310;-82
2021/05/09 06:52:09;;;;;;;3.93;3.53;;;13.40;99.90;;;;;;10484685;28;20236;-81
2021/05/09 06:57:12;;;;;;;4.63;4.23;;;13.50;99.90;;;;;;10493121;28;20247;-81
2021/05/09 07:02:13;;;;;;;4.73;4.33;;;13.60;99.90;;;;;;10465716;28;20208;-81
2021/05/09 07:07:15;;;;;;;4.10;3.43;;;13.70;99.90;;;;;;10484734;28;20224;-81
2021/05/09 07:12:18;;;;;;;3.77;3.33;;;14.00;99.90;;;;;;10502534;28;20223;-82
2021/05/09 07:17:19;;;;;;;3.30;3.10;;;14.30;99.90;;;;;;10468571;28;20244;-82
2021/05/09 07:22:30;;;;;;;3.17;2.97;;;14.70;99.70;;;;;;10466147;28;20197;-82
2021/05/09 07:27:32;;;;;;;3.40;3.10;;;15.20;99.50;;;;;;10472867;28;20221;-82
2021/05/09 07:32:34;;;;;;;3.87;3.23;;;15.70;98.80;;;;;;10497493;28;20307;-82
2021/05/09 07:37:35;;;;;;;3.03;2.83;;;16.10;98.50;;;;;;10500317;28;20216;-82
2021/05/09 07:42:38;;;;;;;3.50;3.20;;;16.50;97.50;;;;;;10501726;28;20639;-82
2021/05/09 07:47:39;;;;;;;2.90;2.70;;;17.00;96.90;;;;;;10491764;28;20224;-82
2021/05/09 07:52:44;;;;;;;2.83;2.63;;;17.40;96.40;;;;;;10489995;28;20308;-82
2021/05/09 07:57:47;;;;;;;2.70;2.50;;;17.90;95.00;;;;;;10478323;28;20727;-82
2021/05/09 08:02:49;;;;;;;2.80;2.23;;;18.40;93.90;;;;;;10497048;28;20200;-82
2021/05/09 08:07:53;;;;;;;2.50;2.37;;;18.90;93.50;;;;;;10460127;28;20308;-82
2021/05/09 08:12:55;;;;;;;2.77;2.57;;;19.40;92.20;;;;;;10465586;28;20213;-82
2021/05/09 08:17:57;;;;;;;2.33;2.23;;;20.00;91.10;;;;;;10498238;28;20247;-82
2021/05/09 08:22:59;;;;;;;2.53;2.33;;;20.60;90.60;;;;;;10492219;28;20231;-83
2021/05/09 08:28:01;;;;;;;2.60;2.40;;;21.20;88.40;;;;;;10498953;28;20226;-82
2021/05/09 08:33:03;;;;;;;2.87;2.63;;;21.70;86.30;;;;;;10513915;28;20216;-82
2021/05/09 08:38:05;;;;;;;2.03;1.90;;;22.20;83.50;;;;;;10501004;28;20228;-86
2021/05/09 08:43:08;;;;;;;1.97;1.87;;;22.60;81.70;;;;;;10503230;28;20198;-83
2021/05/09 08:48:14;;;;;;;2.20;2.10;;;22.90;77.80;;;;;;10481022;28;20771;-84
2021/05/09 08:53:17;;;;;;;2.63;1.87;;;23.30;76.50;;;;;;10473455;28;20225;-83
2021/05/09 08:58:20;;;;;;;2.40;2.20;;;23.70;75.70;;;;;;10496104;28;20689;-85
2021/05/09 09:03:22;;;;;;;2.23;2.13;;;23.90;75.30;;;;;;10496056;28;20200;-86
2021/05/09 09:08:24;;;;;;;1.80;1.70;;;24.20;72.90;;;;;;10493637;28;20278;-85
2021/05/09 09:13:28;;;;;;;2.00;1.90;;;24.40;68.80;;;;;;10495147;28;20196;-83
2021/05/09 09:18:35;;;;;;;1.80;1.70;;;24.80;64.70;;;;;;10491623;28;20247;-84
2021/05/09 09:23:45;;;;;;;1.90;1.77;;;25.30;60.90;;;;;;10464273;28;20216;-83
2021/05/09 09:28:47;;;;;;;1.77;1.67;;;25.80;57.90;;;;;;10461107;28;20319;-83
2021/05/09 09:33:52;;;;;;;1.97;1.87;;;26.20;57.70;;;;;;10474469;28;20276;-82
2021/05/09 09:38:54;;;;;;;1.87;1.77;;;26.50;56.70;;;;;;10469389;28;20232;-82
2021/05/09 09:44:11;;;;;;;2.00;1.90;;;26.80;54.10;;;;;;10470072;28;20280;-82
2021/05/09 09:49:21;;;;;;;1.80;1.70;;;27.20;52.00;;;;;;10448302;22;20240;-77
2021/05/09 09:54:47;;;;;;;3.07;2.80;;;27.60;53.10;;;;;;10419991;28;20236;-77
2021/05/09 10:00:07;;;;;;;2.20;2.10;;;28.10;51.70;;;;;;10371165;28;20209;-77
2021/05/09 10:05:10;;;;;;;2.10;2.00;;;28.70;51.10;;;;;;10367577;28;20594;-77
2021/05/09 10:10:14;;;;;;;1.80;1.70;;;29.40;47.00;;;;;;10355592;28;20320;-77
2021/05/09 10:15:16;;;;;;;2.17;2.00;;;30.00;44.10;;;;;;10389023;28;20290;-78
2021/05/09 10:20:18;;;;;;;2.00;1.90;;;29.60;45.80;;;;;;10336958;28;21103;-78
2021/05/09 10:25:44;;;;;;;2.23;2.13;;;28.90;44.60;;;;;;10374452;28;20717;-78
2021/05/09 10:30:52;;;;;;;2.00;1.90;;;27.90;45.10;;;;;;10374404;28;20641;-77
2021/05/09 10:35:54;;;;;;;2.20;2.10;;;27.10;47.00;;;;;;10374808;28;20556;-77
2021/05/09 10:41:10;;;;;;;2.07;1.97;;;26.40;46.10;;;;;;10362293;28;20203;-77
2021/05/09 10:46:13;;;;;;;2.13;2.00;;;25.80;46.50;;;;;;10358639;28;20234;-78
2021/05/09 10:51:30;;;;;;;1.53;1.43;;;25.30;45.80;;;;;;10381711;28;20651;-78
2021/05/09 10:56:33;;;;;;;2.10;2.00;;;25.10;45.70;;;;;;10378032;28;20222;-78
2021/05/09 11:01:36;;;;;;;1.80;1.70;;;24.80;48.50;;;;;;10378239;28;20230;-78
2021/05/09 11:06:49;;;;;;;1.80;1.70;;;24.60;45.50;;;;;;10377681;28;20257;-78
2021/05/09 11:12:05;;;;;;;1.30;1.30;;;24.40;48.00;;;;;;10377619;28;20202;-78
2021/05/09 11:17:17;;;;;;;1.70;1.60;;;24.30;47.00;;;;;;10377202;28;20246;-78
2021/05/09 11:22:24;;;;;;;1.70;1.60;;;24.20;46.20;;;;;;10378660;28;20214;-78
2021/05/09 11:27:30;;;;;;;1.50;1.40;;;24.20;46.90;;;;;;10374862;28;20694;-78
2021/05/09 11:32:33;;;;;;;2.07;1.60;;;24.10;46.70;;;;;;10365542;28;20211;-78
2021/05/09 11:37:40;;;;;;;1.43;1.43;;;24.00;46.60;;;;;;10374090;28;20550;-78
2021/05/09 11:42:42;;;;;;;2.47;1.90;;;24.10;45.80;;;;;;10369434;28;20221;-78
2021/05/09 11:47:46;;;;;;;1.63;1.53;;;24.20;44.90;;;;;;10366508;28;20304;-77
2021/05/09 11:52:48;;;;;;;1.37;1.30;;;24.30;48.30;;;;;;10365565;28;20674;-77
2021/05/09 11:57:49;;;;;;;1.80;1.70;;;24.10;46.40;;;;;;10330432;28;20226;-77
2021/05/09 12:02:52;;;;;;;6.93;1.60;;;24.20;45.00;;;;;;10354628;28;20260;-77
2021/05/09 12:07:56;;;;;;;1.70;1.60;;;24.20;44.90;;;;;;10372083;28;20219;-77
2021/05/09 12:13:00;;;;;;;1.60;1.50;;;24.30;46.20;;;;;;10373514;28;20202;-77
2021/05/09 12:18:03;;;;;;;2.20;1.60;;;24.30;46.80;;;;;;10375965;28;20213;-77
2021/05/09 12:23:06;;;;;;;1.80;1.70;;;24.30;45.50;;;;;;10364324;28;20215;-77
2021/05/09 12:28:11;;;;;;;4.37;1.90;;;24.30;47.60;;;;;;10369764;28;20639;-77
2021/05/09 12:33:24;;;;;;;1.80;1.60;;;24.20;48.10;;;;;;10370357;28;20226;-77
2021/05/09 12:38:27;;;;;;;1.73;1.63;;;24.00;47.30;;;;;;10371486;28;20229;-77
2021/05/09 12:43:49;;;;;;;2.03;1.93;;;23.80;48.10;;;;;;10371874;28;20276;-77
2021/05/09 12:48:51;;;;;;;2.10;1.80;;;23.70;47.70;;;;;;10354178;28;20325;-77
2021/05/09 12:53:53;;;;;;;2.73;1.80;;;23.70;46.00;;;;;;10354184;28;20285;-77
2021/05/09 12:59:07;;;;;;;1.77;1.60;;;23.90;45.90;;;;;;10371237;28;20240;-78
2021/05/09 13:04:30;;;;;;;2.00;1.90;;;24.10;47.80;;;;;;10370974;28;20218;-77
2021/05/09 13:09:33;;;;;;;1.50;1.50;;;24.20;45.20;;;;;;10370657;28;20222;-78
2021/05/09 13:14:43;;;;;;;1.70;1.60;;;24.60;45.00;;;;;;10371712;28;20677;-77
2021/05/09 13:19:47;;;;;;;1.67;1.57;;;24.50;48.50;;;;;;10370969;28;20203;-77
2021/05/09 13:24:49;;;;;;;1.80;1.70;;;24.30;46.80;;;;;;10372533;28;20301;-77
2021/05/09 13:29:50;;;;;;;2.20;1.57;;;24.30;46.60;;;;;;10341168;28;20202;-77
2021/05/09 13:34:54;;;;;;;1.93;1.67;;;24.30;44.90;;;;;;10380254;28;20199;-78
2021/05/09 13:39:55;;;;;;;4.50;1.60;;;24.40;44.70;;;;;;10381046;28;20194;-78
2021/05/09 13:44:57;;;;;;;1.90;1.80;;;24.60;48.70;;;;;;10379967;28;20316;-77
2021/05/09 13:49:59;;;;;;;1.90;1.80;;;24.40;45.40;;;;;;10362859;28;20241;-77
2021/05/09 13:55:01;;;;;;;2.30;1.90;;;24.60;44.20;;;;;;10345732;28;20662;-78
2021/05/09 14:00:04;;;;;;;1.70;1.60;;;24.60;45.60;;;;;;10372520;28;20314;-78
2021/05/09 14:05:08;;;;;;;1.80;1.70;;;24.70;45.30;;;;;;10370234;28;20233;-78
2021/05/09 14:10:10;;;;;;;1.80;1.70;;;24.60;48.10;;;;;;10360003;28;20207;-78
2021/05/09 14:15:13;;;;;;;1.97;1.83;;;24.30;49.50;;;;;;10360041;28;20219;-78
2021/05/09 14:20:16;;;;;;;1.47;1.40;;;23.90;51.90;;;;;;10376863;28;20238;-78
2021/05/09 14:25:18;;;;;;;1.53;1.43;;;23.50;53.80;;;;;;10371931;28;20228;-78
2021/05/09 14:30:20;;;;;;;3.07;2.27;;;23.20;51.10;;;;;;10372132;28;20199;-77
2021/05/09 14:35:23;;;;;;;1.47;1.37;;;23.10;50.80;;;;;;10353952;28;20214;-77
2021/05/09 14:40:24;;;;;;;3.07;2.40;;;23.20;46.60;;;;;;10353143;28;20203;-77
2021/05/09 14:45:26;;;;;;;1.80;1.70;;;23.40;47.10;;;;;;10328869;28;20317;-77
2021/05/09 14:50:29;;;;;;;1.53;1.43;;;23.40;48.50;;;;;;10367714;28;20207;-77
2021/05/09 14:55:30;;;;;;;1.50;1.40;;;23.20;52.30;;;;;;10365433;28;20683;-77
2021/05/09 15:00:32;;;;;;;1.70;1.60;;;23.10;49.30;;;;;;10357770;28;20754;-77
2021/05/09 15:05:34;;;;;;;1.63;1.53;;;23.10;50.00;;;;;;10355021;28;20250;-77
2021/05/09 15:10:36;;;;;;;1.50;1.40;;;23.50;46.80;;;;;;10357174;28;20293;-77
2021/05/09 15:15:38;;;;;;;1.40;1.30;;;23.80;47.50;;;;;;10352289;28;20230;-77
2021/05/09 15:20:40;;;;;;;1.80;1.70;;;24.30;45.70;;;;;;10375820;28;20689;-77
2021/05/09 15:25:42;;;;;;;1.47;1.40;;;24.70;46.30;;;;;;10358151;28;20325;-77
2021/05/09 15:30:43;;;;;;;1.60;1.33;;;24.90;45.00;;;;;;10350117;28;20210;-77
2021/05/09 15:35:46;;;;;;;1.70;1.60;;;25.00;45.00;;;;;;10356683;28;20237;-77
2021/05/09 15:40:48;;;;;;;1.67;1.57;;;25.00;46.40;;;;;;10375121;28;20260;-77
2021/05/09 15:45:50;;;;;;;1.50;1.33;;;25.00;44.90;;;;;;10354006;28;20225;-77
2021/05/09 15:50:53;;;;;;;2.57;1.90;;;25.00;46.90;;;;;;10348093;28;20750;-77
2021/05/09 15:55:55;;;;;;;1.83;1.73;;;24.70;48.60;;;;;;10344684;28;20306;-77
2021/05/09 16:00:57;;;;;;;4.77;4.17;;;24.20;53.50;;;;;;10358269;28;20284;-77
2021/05/09 16:06:03;;;;;;;2.47;2.07;;;23.60;55.10;;;;;;10359370;28;20230;-77
2021/05/09 16:11:04;;;;;;;2.43;1.90;;;23.30;54.70;;;;;;10343063;28;20626;-77
2021/05/09 16:16:06;;;;;;;2.00;1.90;;;23.30;56.70;;;;;;10361017;28;20230;-77
2021/05/09 16:21:08;;;;;;;4.10;1.70;;;23.30;56.70;;;;;;10358988;28;20573;-77
2021/05/09 16:26:10;;;;;;;2.27;2.10;;;23.40;56.90;;;;;;10363837;28;20613;-77
2021/05/09 16:31:12;;;;;;;2.20;2.00;;;23.40;56.20;;;;;;10367201;28;20206;-77
2021/05/09 16:36:14;;;;;;;1.80;1.70;;;23.30;57.40;;;;;;10353910;28;20218;-77
2021/05/09 16:41:16;;;;;;;2.93;1.80;;;23.30;57.10;;;;;;10342356;28;20213;-77
2021/05/09 16:46:17;;;;;;;2.30;1.77;;;23.30;56.80;;;;;;10359621;28;20309;-77
2021/05/09 16:51:20;;;;;;;3.20;3.00;;;23.30;57.60;;;;;;10343230;28;20209;-77
2021/05/09 16:56:22;;;;;;;3.10;2.90;;;23.20;57.80;;;;;;10353666;28;20218;-77
2021/05/09 17:01:25;;;;;;;6.13;2.20;;;23.10;57.70;;;;;;10351478;28;20317;-77
2021/05/09 17:06:27;;;;;;;2.40;2.30;;;22.90;57.60;;;;;;10372501;28;20262;-76
2021/05/09 17:11:30;;;;;;;3.30;3.10;;;22.90;58.30;;;;;;10354996;28;20564;-76
2021/05/09 17:16:32;;;;;;;3.53;3.07;;;22.80;58.30;;;;;;10378714;28;20216;-76
2021/05/09 17:21:34;;;;;;;3.07;2.87;;;22.70;58.60;;;;;;10386294;28;20720;-77
2021/05/09 17:26:36;;;;;;;2.40;2.20;;;22.60;58.80;;;;;;10377138;28;20313;-77
2021/05/09 17:31:37;;;;;;;2.87;2.00;;;22.60;59.30;;;;;;10378612;28;20818;-76
2021/05/09 17:36:41;;;;;;;3.20;3.00;;;22.60;60.10;;;;;;10393965;28;20220;-76
2021/05/09 17:41:43;;;;;;;4.00;3.63;;;22.50;60.40;;;;;;10391378;28;20281;-76
2021/05/09 17:46:45;;;;;;;3.97;2.37;;;22.50;61.40;;;;;;10369171;28;20229;-76
2021/05/09 17:51:47;;;;;;;2.50;2.40;;;22.40;60.90;;;;;;10361490;28;20206;-77
2021/05/09 17:56:49;;;;;;;2.80;2.60;;;22.40;61.30;;;;;;10355937;28;20693;-77
2021/05/09 18:01:51;;;;;;;5.63;3.40;;;22.30;61.20;;;;;;10379571;28;20449;-77
2021/05/09 18:06:53;;;;;;;3.13;2.93;;;22.20;61.60;;;;;;10368131;28;20305;-77
2021/05/09 18:11:55;;;;;;;2.50;2.30;;;22.20;62.20;;;;;;10370823;28;20198;-77
2021/05/09 18:17:02;;;;;;;2.77;2.57;;;22.10;62.00;;;;;;10357522;28;20210;-77
2021/05/09 18:27:24;;;;;;;2.90;2.10;;;21.90;62.50;;;;;;10376366;28;20226;-77
2021/05/09 18:32:26;;;;;;;2.60;2.40;;;21.90;63.40;;;;;;10383494;28;20279;-77
2021/05/09 18:37:28;;;;;;;2.63;2.00;;;21.80;63.80;;;;;;10374324;28;20221;-77
2021/05/09 18:42:30;;;;;;;3.83;2.30;;;21.70;64.00;;;;;;10365699;28;20217;-77
2021/05/09 18:47:32;;;;;;;2.43;2.10;;;21.50;64.20;;;;;;10368624;28;20577;-77
2021/05/09 18:52:35;;;;;;;2.73;2.50;;;21.40;64.20;;;;;;10347490;28;20681;-77
2021/05/09 18:57:37;;;;;;;2.57;2.37;;;21.30;64.80;;;;;;10369576;28;20226;-76
2021/05/09 19:02:38;;;;;;;7.80;5.10;;;21.10;64.60;;;;;;10377998;28;20222;-76
2021/05/09 19:07:41;;;;;;;7.67;4.27;;;20.90;65.00;;;;;;10373233;28;20222;-76
2021/05/09 19:12:45;;;;;;;10.17;4.63;;;20.80;64.80;;;;;;10368445;28;20237;-76
2021/05/09 19:17:48;;;;;;;7.83;5.60;;;20.70;64.60;;;;;;10367459;28;20234;-76
2021/05/09 19:22:51;;;;;;;2.80;2.60;;;20.60;64.60;;;;;;10366893;28;20341;-76
2021/05/09 19:27:52;;;;;;;4.53;2.40;;;20.50;65.00;;;;;;10374298;28;20231;-76
2021/05/09 19:32:54;;;;;;;2.53;2.00;;;20.30;64.60;;;;;;10358078;28;20214;-76
2021/05/09 19:37:56;;;;;;;2.50;2.40;;;20.20;64.70;;;;;;10368149;28;20226;-76
2021/05/09 19:43:00;;;;;;;2.80;2.40;;;20.10;64.60;;;;;;10367255;28;20249;-76
2021/05/09 19:48:02;;;;;;;2.63;2.40;;;20.00;64.30;;;;;;10349821;28;20249;-76
2021/05/09 19:53:04;;;;;;;2.80;2.53;;;19.90;64.20;;;;;;10366189;28;20573;-76
2021/05/09 19:58:07;;;;;;;2.00;1.70;;;19.80;64.00;;;;;;10361023;28;20269;-76
2021/05/09 20:03:08;;;;;;;4.80;2.57;;;19.70;63.40;;;;;;10369102;28;20215;-76
2021/05/09 20:08:12;;;;;;;2.37;2.27;;;19.70;63.20;;;;;;10369158;28;20666;-76
2021/05/09 20:13:14;;;;;;;2.20;2.00;;;19.60;63.30;;;;;;10349375;28;20230;-76
2021/05/09 20:18:17;;;;;;;2.90;2.23;;;19.60;62.20;;;;;;10366205;28;20714;-76
2021/05/09 20:23:20;;;;;;;2.63;2.00;;;19.50;61.90;;;;;;10367103;28;20218;-76
2021/05/09 20:28:23;;;;;;;2.20;2.00;;;19.50;61.60;;;;;;10366033;28;20254;-76
2021/05/09 20:33:25;;;;;;;2.17;1.80;;;19.50;60.40;;;;;;10366821;28;20288;-76
2021/05/09 20:38:27;;;;;;;2.60;1.63;;;19.50;60.40;;;;;;10374967;28;20317;-76
2021/05/09 20:43:29;;;;;;;2.07;1.97;;;19.50;59.30;;;;;;10361879;28;20717;-76
2021/05/09 20:48:30;;;;;;;3.33;1.87;;;19.60;58.90;;;;;;10346042;28;20236;-76
2021/05/09 20:53:33;;;;;;;1.80;1.70;;;19.60;58.60;;;;;;10365100;28;20301;-76
2021/05/09 20:58:35;;;;;;;2.50;1.93;;;19.60;59.90;;;;;;10371089;28;20222;-76
2021/05/09 21:03:36;;;;;;;2.07;1.80;;;19.60;59.60;;;;;;10345134;28;20725;-76
2021/05/09 21:08:39;;;;;;;1.90;1.80;;;19.60;60.10;;;;;;10334499;28;20250;-76
2021/05/09 21:13:40;;;;;;;1.90;1.80;;;19.50;59.80;;;;;;10354323;28;20206;-76
2021/05/09 21:18:42;;;;;;;2.13;1.93;;;19.50;60.30;;;;;;10340413;28;20237;-76
2021/05/09 21:23:44;;;;;;;2.10;1.90;;;19.50;61.90;;;;;;10374174;28;20218;-76
2021/05/09 21:28:46;;;;;;;2.03;1.93;;;19.40;62.50;;;;;;10366060;28;20756;-76
2021/05/09 21:33:48;;;;;;;2.00;1.90;;;19.30;63.30;;;;;;10367685;28;20195;-76
2021/05/09 21:38:50;;;;;;;2.23;2.13;;;19.30;63.80;;;;;;10344716;28;20222;-76
2021/05/09 21:43:52;;;;;;;2.53;2.30;;;19.20;64.40;;;;;;10350795;28;20576;-76
2021/05/09 21:48:53;;;;;;;2.57;2.03;;;19.10;64.60;;;;;;10368790;28;20317;-76
2021/05/09 21:53:56;;;;;;;2.17;2.07;;;19.00;64.00;;;;;;10375136;28;20191;-76
2021/05/09 21:58:58;;;;;;;2.30;2.07;;;19.10;64.90;;;;;;10373710;28;20578;-76
2021/05/09 22:04:00;;;;;;;2.50;2.23;;;19.10;64.80;;;;;;10375778;28;20260;-76
2021/05/09 22:09:02;;;;;;;2.40;2.20;;;19.10;64.80;;;;;;10375296;28;20226;-76
2021/05/09 22:14:04;;;;;;;1.87;1.77;;;19.00;65.60;;;;;;10354975;28;20202;-76
2021/05/09 22:19:06;;;;;;;2.73;2.20;;;19.00;66.20;;;;;;10373831;28;20305;-76
2021/05/09 22:24:12;;;;;;;2.30;2.20;;;19.00;67.10;;;;;;10374310;28;20225;-76
2021/05/09 22:29:14;;;;;;;2.43;2.23;;;18.90;67.80;;;;;;10374257;28;20254;-76
2021/05/09 22:34:15;;;;;;;2.30;2.20;;;18.70;68.20;;;;;;10356109;28;20260;-76
2021/05/09 22:39:18;;;;;;;6.20;3.00;;;18.60;69.00;;;;;;10356515;28;20317;-76
2021/05/09 22:44:19;;;;;;;6.23;2.20;;;18.50;70.00;;;;;;10373810;28;20682;-76
2021/05/09 22:49:21;;;;;;;4.87;2.50;;;18.40;70.30;;;;;;10356516;28;20234;-76
2021/05/09 22:54:23;;;;;;;4.40;2.30;;;18.30;71.00;;;;;;10373305;28;20195;-76
2021/05/09 22:59:25;;;;;;;2.33;2.10;;;18.30;71.60;;;;;;10371540;28;20222;-76
2021/05/09 23:04:27;;;;;;;14.63;3.90;;;18.20;72.50;;;;;;10369434;28;20757;-76
2021/05/09 23:09:29;;;;;;;3.40;2.40;;;18.00;72.90;;;;;;10338564;28;20681;-76
2021/05/09 23:14:31;;;;;;;2.77;2.57;;;17.90;73.90;;;;;;10373740;28;20219;-76
2021/05/09 23:24:52;;;;;;;2.87;2.67;;;17.70;74.60;;;;;;10355217;28;20252;-76
2021/05/09 23:29:53;;;;;;;2.73;2.53;;;17.70;75.20;;;;;;10371287;28;20725;-76
2021/05/09 23:34:55;;;;;;;3.10;2.00;;;17.60;75.60;;;;;;10365572;28;20757;-75
2021/05/09 23:39:58;;;;;;;2.60;2.40;;;17.50;75.90;;;;;;10387094;28;20285;-76
2021/05/09 23:45:00;;;;;;;7.13;2.10;;;17.50;76.80;;;;;;10377377;28;20773;-76
2021/05/09 23:50:02;;;;;;;2.43;2.23;;;17.40;76.70;;;;;;10354275;28;20281;-76
2021/05/09 23:55:05;;;;;;;11.63;2.77;;;17.40;76.90;;;;;;10353471;28;20246;-76
